Home > Products > Valid Products > MTR

000
SAUS45 KRIW 171457
MTRP60
METAR KP60 171456Z AUTO 00000KT 08/04 A3026 RMK AO1 SLP194 T00830044
53004





000
SAUS45 KRIW 171357
MTRP60
METAR KP60 171356Z AUTO 00000KT 02/01 A3025 RMK AO1 SLP207 T00220006





000
SAUS45 KRIW 171257
MTRP60
METAR KP60 171256Z AUTO 00000KT 01/00 A3025 RMK AO1 SLP196 T00110000





000
SAUS45 KRIW 171158
MTRP60
METAR KP60 171156Z AUTO 00000KT 01/00 A3024 RMK AO1 SLP179 T00110000
10056 20011 55003





000
SAUS45 KRIW 171057
MTRP60
METAR KP60 171056Z AUTO 00000KT 02/01 A3024 RMK AO1 SLP178 T00170006





000
SAUS45 KRIW 170957
MTRP60
METAR KP60 170956Z AUTO 31003KT 02/01 A3025 RMK AO1 SLP181 T00220011





000
SAUS45 KRIW 170858
MTRP60
METAR KP60 170856Z AUTO 00000KT 03/02 A3025 RMK AO1 SLP183 T00330017
58003





000
SAUS45 KRIW 170757
MTRP60
METAR KP60 170756Z AUTO 00000KT 04/02 A3026 RMK AO1 SLP183 T00390022





000
SAUS45 KRIW 170657
MTRP60
METAR KP60 170656Z AUTO 00000KT 06/03 A3026 RMK AO1 SLP187 T00560028
402001006





000
SAUS45 KRIW 170557
MTRP60
METAR KP60 170556Z AUTO 29003KT 06/03 A3026 RMK AO1 SLP196 T00560028
10194 20056 58002





000
SAUS45 KRIW 170458
MTRP60
METAR KP60 170456Z AUTO 00000KT 06/02 A3027 RMK AO1 SLP199 T00560022





000
SAUS45 KRIW 170357
MTRP60
METAR KP60 170356Z AUTO 00000KT 07/04 A3027 RMK AO1 SLP199 T00720039





000
SAUS45 KRIW 170357
MTRP60
METAR KP60 170356Z AUTO 00000KT 07/04 A3027 RMK AO1 SLP199 T00720039





000
SAUS45 KRIW 170257
MTRP60
METAR KP60 170256Z AUTO 00000KT 09/04 A3027 RMK AO1 SLP199 T00940044
55000





000
SAUS45 KRIW 170158
MTRP60
METAR KP60 170156Z AUTO 00000KT 10/05 A3027 RMK AO1 SLP211 T01000050





000
SAUS45 KRIW 170057
MTRP60
METAR KP60 170056Z AUTO 00000KT 14/06 A3026 RMK AO1 SLP202 T01440061





000
SAUS45 KRIW 162357
MTRP60
METAR KP60 162356Z AUTO 19003KT 19/02 A3027 RMK AO1 SLP196 T01940017
10200 20128 58011





000
SAUS45 KRIW 162258
MTRP60
METAR KP60 162256Z AUTO VRB04KT 19/01 A3029 RMK AO1 SLP199 T01940011





000
SAUS45 KRIW 162158
MTRP60
METAR KP60 162156Z AUTO VRB03KT 19/M01 A3031 RMK AO1 SLP205
T01891006





000
SAUS45 KRIW 162057
MTRP60
METAR KP60 162056Z AUTO VRB03KT 18/M01 A3031 RMK AO1 SLP211
T01781006 56007





000
SAUS45 KRIW 161957
MTRP60
METAR KP60 161956Z AUTO 28008KT 18/01 A3032 RMK AO1 SLP209 T01830006





000
SAUS45 KRIW 161857
MTRP60
METAR KP60 161856Z AUTO 11005KT 16/04 A3032 RMK AO1 SLP215 T01560039





000
SAUS45 KRIW 161757
MTRP60
METAR KP60 161756Z AUTO 12003KT 12/04 A3034 RMK AO1 SLP229 T01220044
10133 21006 58005 $





000
SAUS45 KRIW 161658
MTRP60
METAR KP60 161656Z AUTO 00000KT 12/04 A3035 RMK AO1 SLP229 T01220039
$





000
SAUS45 KRIW 161557
MTRP60
METAR KP60 161556Z AUTO 00000KT 10/05 A3035 RMK AO1 SLP234 T01000050
$





000
SAUS45 KRIW 161458
MTRP60
METAR KP60 161456Z AUTO 00000KT 08/03 A3036 RMK AO1 SLP235 T00780033
50002 $





000
SAUS45 KRIW 161358
MTRP60
METAR KP60 161356Z AUTO 00000KT 03/01 A3036 RMK AO1 SLP243 T00280006
$





000
SAUS45 KRIW 161257
MTRP60
METAR KP60 161256Z AUTO 00000KT 01/M01 A3036 RMK AO1 SLP229
T00061011 $





000
SAUS45 KRIW 161157
MTRP60
METAR KP60 161156Z AUTO 32003KT M01/M02 A3035 RMK AO1 SLP223
T10061017 10028 21006 56003 $





000
SAUS45 KRIW 161057
MTRP60
METAR KP60 161056Z AUTO 00000KT 00/M02 A3035 RMK AO1 SLP225
T00001017 $





000
SAUS45 KRIW 160957
MTRP60
METAR KP60 160956Z AUTO 00000KT 01/M02 A3035 RMK AO1 SLP221
T00061017 $





000
SAUS45 KRIW 160857
MTRP60
METAR KP60 160856Z AUTO 00000KT 01/M02 A3036 RMK AO1 SLP220
T00111017 57001 $





000
SAUS45 KRIW 160757
MTRP60
METAR KP60 160756Z AUTO 31003KT 01/M02 A3036 RMK AO1 SLP225
T00111017 $





000
SAUS45 KRIW 160657
MTRP60
METAR KP60 160656Z AUTO 00000KT 02/M02 A3036 RMK AO1 SLP229
T00171017 402061022 $





000
SAUS45 KRIW 160557
MTRP60
METAR KP60 160556Z AUTO 00000KT 03/M02 A3036 RMK AO1 SLP237
T00281017 10189 20028 53006 $





000
SAUS45 KRIW 160457
MTRP60
METAR KP60 160456Z AUTO 00000KT 04/M01 A3035 RMK AO1 SLP238
T00391006 $





000
SAUS45 KRIW 160357
MTRP60
METAR KP60 160356Z AUTO 32005KT 06/00 A3035 RMK AO1 SLP235 T00560000
$





000
SAUS45 KRIW 160258
MTRP60
METAR KP60 160256Z AUTO 32004KT 08/00 A3034 RMK AO1 SLP236 T00780000
53006 $





000
SAUS45 KRIW 160157
MTRP60
METAR KP60 160156Z AUTO 31004KT 10/02 A3033 RMK AO1 SLP241 T01000022
$





000
SAUS45 KRIW 160057
MTRP60
METAR KP60 160056Z AUTO 29004KT 17/M02 A3032 RMK AO1 SLP225
T01671017 $





000
SAUS45 KRIW 152357
MTRP60
METAR KP60 152356Z AUTO 29008G14KT 19/M03 A3032 RMK AO1 SLP215
T01891028 10206 20122 55000 $





000
SAUS45 KRIW 152257
MTRP60
METAR KP60 152256Z AUTO 27010G16KT 19/M02 A3031 RMK AO1 SLP214
T01891022 $





000
SAUS45 KRIW 152157
MTRP60
METAR KP60 152156Z AUTO VRB04KT 19/M01 A3032 RMK AO1 SLP214
T01891011 $





000
SAUS45 KRIW 152057
MTRP60
METAR KP60 152056Z AUTO 24007KT 150V010 20/M02 A3032 RMK AO1 SLP212
T02001022 58007 $





000
SAUS45 KRIW 151957
MTRP60
METAR KP60 151956Z AUTO 30007G14KT 260V340 19/M03 A3033 RMK AO1
SLP215 T01891028 $





000
SAUS45 KRIW 151857
MTRP60
METAR KP60 151856Z AUTO VRB03KT 16/02 A3034 RMK AO1 SLP225 T01560017
$





000
SAUS45 KRIW 151757
MTRP60
METAR KP60 151756Z AUTO 11004KT 12/02 A3034 RMK AO1 SLP234 T01220017
10122 21022 58002 $





000
SAUS45 KRIW 151657
MTRP60
METAR KP60 151656Z AUTO 11004KT 11/03 A3035 RMK AO1 SLP240 T01060033
$





000
SAUS45 KRIW 151557
MTRP60
METAR KP60 151556Z AUTO VRB03KT 09/03 A3035 RMK AO1 SLP243 T00890028
$





000
SAUS45 KRIW 151457
MTRP60
METAR KP60 151456Z AUTO 00000KT 06/02 A3035 RMK AO1 SLP246 T00560017
50002 $





000
SAUS45 KRIW 151357
MTRP60
METAR KP60 151356Z AUTO 00000KT 00/M02 A3035 RMK AO1 SLP254
T00001022





000
SAUS45 KRIW 151257
MTRP60
METAR KP60 151256Z AUTO 30003KT M02/M03 A3035 RMK AO1 SLP241
T10221033





000
SAUS45 KRIW 151158
MTRP60
METAR KP60 151156Z AUTO 00000KT M02/M03 A3034 RMK AO1 SLP227
T10171033 10017 21022 53003 $





000
SAUS45 KRIW 151057
MTRP60
METAR KP60 151056Z AUTO 00000KT M02/M03 A3034 RMK AO1 SLP225
T10171033 $





000
SAUS45 KRIW 150958
MTRP60
METAR KP60 150956Z AUTO 00000KT M02/M03 A3034 RMK AO1 SLP222
T10171033 $





000
SAUS45 KRIW 150857
MTRP60
METAR KP60 150856Z AUTO 00000KT M01/M03 A3033 RMK AO1 SLP221
T10111033 51005 $





000
SAUS45 KRIW 150757
MTRP60
METAR KP60 150756Z AUTO 31003KT M01/M03 A3033 RMK AO1 SLP220
T10061033 $





000
SAUS45 KRIW 150657
MTRP60
METAR KP60 150656Z AUTO 00000KT 01/M03 A3032 RMK AO1 SLP217
T00061033 401891028 $





000
SAUS45 KRIW 150557
MTRP60
METAR KP60 150556Z AUTO 33004KT 02/M03 A3031 RMK AO1 SLP210
T00171028 10178 20011 51009 $





000
SAUS45 KRIW 150457
MTRP60
METAR KP60 150456Z AUTO 27003KT 02/M02 A3030 RMK AO1 SLP215
T00221022 $





000
SAUS45 KRIW 150357
MTRP60
METAR KP60 150356Z AUTO 32004KT 03/M02 A3029 RMK AO1 SLP222
T00331017 $





000
SAUS45 KRIW 150258
MTRP60
METAR KP60 150256Z AUTO 31003KT 06/M02 A3028 RMK AO1 SLP220
T00561017 53011 $





000
SAUS45 KRIW 150158
MTRP60
METAR KP60 150156Z AUTO 30004KT 08/M01 A3026 RMK AO1 SLP225
T00831011 $





000
SAUS45 KRIW 150057
MTRP60
METAR KP60 150056Z AUTO 00000KT 16/M08 A3025 RMK AO1 SLP203
T01561078 $





000
SAUS45 KRIW 142357
MTRP60
METAR KP60 142356Z AUTO 30005KT 18/M09 A3024 RMK AO1 SLP192
T01781089 10189 20161 53006 $





000
SAUS45 KRIW 142258
MTRP60
METAR KP60 142256Z AUTO 27007G19KT 250V310 18/M08 A3022 RMK AO1
SLP184 T01831078 $





000
SAUS45 KRIW 142158
MTRP60
METAR KP60 142156Z AUTO VRB04G14KT 19/M06 A3022 RMK AO1 SLP179
T01891061 $





000
SAUS45 KRIW 142058
MTRP60
METAR KP60 142056Z AUTO 26008KT 210V330 18/M06 A3022 RMK AO1 SLP178
T01831061 55001 $





000
SAUS45 KRIW 141957
MTRP60
METAR KP60 141956Z AUTO 27011G19KT 230V310 18/M07 A3021 RMK AO1
SLP180 T01781067 $





000
SAUS45 KRIW 141857
MTRP60
METAR KP60 141856Z AUTO 27010G22KT 17/M07 A3021 RMK AO1 SLP181
T01721067 $





000
SAUS45 KRIW 141758
MTRP60
METAR KP60 141756Z AUTO VRB05KT 17/M06 A3022 RMK AO1 SLP183
T01671061 10167 21028 58001 $





000
SAUS45 KRIW 141658
MTRP60
METAR KP60 141656Z AUTO 00000KT 13/03 A3023 RMK AO1 SLP194 T01280028
$





000
SAUS45 KRIW 141557
MTRP60
METAR KP60 141556Z AUTO 12004KT 09/03 A3023 RMK AO1 SLP203 T00890033
$





    US Dept of Commerce
    National Oceanic and Atmospheric Administration
    National Weather Service
    1325 East West Highway
    Silver Spring, MD 20910
    Page Author: NWS Internet Services Team
Disclaimer
Information Quality
Credits
Glossary
Privacy Policy
Freedom of Information Act (FOIA)
About Us
Career Opportunities